createdAt,value
2018-12-10T00:00:36.112Z,13.50
2018-12-10T00:03:15.065Z,13.60
2018-12-10T00:05:47.173Z,13.60
2018-12-10T00:08:23.596Z,13.50
2018-12-10T00:10:53.452Z,13.50
2018-12-10T00:13:25.399Z,13.50
2018-12-10T00:16:00.883Z,13.50
2018-12-10T00:18:30.817Z,13.50
2018-12-10T00:21:07.387Z,13.50
2018-12-10T00:23:37.335Z,13.50
2018-12-10T00:26:09.381Z,13.60
2018-12-10T00:28:39.429Z,13.50
2018-12-10T00:31:12.551Z,13.50
2018-12-10T00:34:01.045Z,13.50
2018-12-10T00:36:31.074Z,13.50
2018-12-10T00:39:01.217Z,13.50
2018-12-10T00:41:31.272Z,13.50
2018-12-10T00:44:15.507Z,13.50
2018-12-10T00:46:45.334Z,13.50
2018-12-10T00:49:15.406Z,13.40
2018-12-10T00:54:25.170Z,13.40
2018-12-10T00:56:54.984Z,13.50
2018-12-10T00:59:24.959Z,13.50
2018-12-10T01:01:54.963Z,13.50
2018-12-10T01:04:24.615Z,13.50
2018-12-10T01:06:56.181Z,13.50
2018-12-10T01:09:25.625Z,13.50
2018-12-10T01:11:55.739Z,13.50
2018-12-10T01:14:25.830Z,13.50
2018-12-10T01:16:56.085Z,13.50
2018-12-10T01:19:25.997Z,13.40
2018-12-10T01:22:13.004Z,13.40
2018-12-10T01:24:49.138Z,13.40
2018-12-10T01:29:56.146Z,13.20
2018-12-10T01:32:25.924Z,13.10
2018-12-10T01:35:10.071Z,13.20
2018-12-10T01:37:43.801Z,13.20
2018-12-10T01:40:13.805Z,13.30
2018-12-10T01:42:43.885Z,13.20
2018-12-10T01:45:13.703Z,13.20
2018-12-10T01:47:43.375Z,13.10
2018-12-10T01:50:13.404Z,13.00
2018-12-10T01:52:43.348Z,13.00
2018-12-10T01:55:15.325Z,12.90
2018-12-10T01:57:54.740Z,13.00
2018-12-10T02:00:25.155Z,12.90
2018-12-10T02:02:56.964Z,12.90
2018-12-10T02:05:26.892Z,12.90
2018-12-10T02:07:56.805Z,12.90
2018-12-10T02:10:26.664Z,12.80
2018-12-10T02:12:56.697Z,12.90
2018-12-10T02:15:26.339Z,12.90
2018-12-10T02:17:58.247Z,11.20
2018-12-10T02:20:28.076Z,12.90
2018-12-10T02:22:58.070Z,12.90
2018-12-10T02:25:28.081Z,13.00
2018-12-10T02:27:57.813Z,13.00
2018-12-10T02:30:32.062Z,12.90
2018-12-10T02:33:02.100Z,12.90
2018-12-10T02:35:32.242Z,12.90
2018-12-10T02:38:02.850Z,12.90
2018-12-10T02:40:32.711Z,12.90
2018-12-10T02:43:02.536Z,13.00
2018-12-10T02:45:32.771Z,13.00
2018-12-10T02:48:02.567Z,12.90
2018-12-10T02:50:32.493Z,12.90
2018-12-10T02:53:02.520Z,13.00
2018-12-10T02:55:32.229Z,12.90
2018-12-10T02:58:09.303Z,12.90
2018-12-10T03:00:41.798Z,12.90
2018-12-10T03:03:11.740Z,12.90
2018-12-10T03:05:41.870Z,13.00
2018-12-10T03:08:11.691Z,12.80
2018-12-10T03:10:41.725Z,12.80
2018-12-10T03:13:11.640Z,12.70
2018-12-10T03:15:41.523Z,12.70
2018-12-10T03:18:11.807Z,12.70
2018-12-10T03:20:41.711Z,12.70
2018-12-10T03:23:11.471Z,12.70
2018-12-10T03:25:41.750Z,12.70
2018-12-10T03:28:11.713Z,12.70
2018-12-10T03:30:41.776Z,12.70
2018-12-10T03:33:11.649Z,12.70
2018-12-10T03:35:42.375Z,12.70
2018-12-10T03:38:12.523Z,12.70
2018-12-10T03:40:42.399Z,12.70
2018-12-10T03:43:12.336Z,12.70
2018-12-10T03:45:42.651Z,12.60
2018-12-10T03:48:12.489Z,12.60
2018-12-10T03:50:45.415Z,12.60
2018-12-10T03:53:15.647Z,12.60
2018-12-10T03:55:46.898Z,12.60
2018-12-10T03:58:16.515Z,12.60
2018-12-10T04:00:48.412Z,12.60
2018-12-10T04:03:18.192Z,12.60
2018-12-10T04:05:48.139Z,12.60
2018-12-10T04:08:17.866Z,12.50
2018-12-10T04:10:47.815Z,12.60
2018-12-10T04:13:17.312Z,12.50
2018-12-10T04:15:47.457Z,12.50
2018-12-10T04:18:17.006Z,12.50
2018-12-10T04:20:46.955Z,12.50
2018-12-10T04:23:22.034Z,12.50
2018-12-10T04:25:51.884Z,12.50
2018-12-10T04:28:21.437Z,12.50
2018-12-10T04:30:51.302Z,12.50
2018-12-10T04:33:23.140Z,12.50
2018-12-10T04:35:52.956Z,12.40
2018-12-10T04:38:22.563Z,12.50
2018-12-10T04:40:52.449Z,12.50
2018-12-10T04:43:22.037Z,12.50
2018-12-10T04:45:51.955Z,12.40
2018-12-10T04:48:28.673Z,12.40
2018-12-10T04:50:58.669Z,12.40
2018-12-10T04:53:28.220Z,12.40
2018-12-10T04:55:58.635Z,12.40
2018-12-10T04:58:28.603Z,12.40
2018-12-10T05:00:58.716Z,12.40
2018-12-10T05:03:34.407Z,12.40
2018-12-10T05:06:14.002Z,12.40
2018-12-10T05:08:44.684Z,12.40
2018-12-10T05:11:14.719Z,12.40
2018-12-10T05:13:45.710Z,12.30
2018-12-10T05:16:16.088Z,12.40
2018-12-10T05:18:45.881Z,12.30
2018-12-10T05:21:15.927Z,12.30
2018-12-10T05:23:45.758Z,12.20
2018-12-10T05:26:16.120Z,12.20
2018-12-10T05:28:45.843Z,12.10
2018-12-10T05:31:15.944Z,12.00
2018-12-10T05:33:45.877Z,12.10
2018-12-10T05:36:15.840Z,12.00
2018-12-10T05:38:45.587Z,12.00
2018-12-10T05:41:16.936Z,12.00
2018-12-10T05:43:46.791Z,12.00
2018-12-10T05:46:16.796Z,12.00
2018-12-10T05:48:46.832Z,11.90
2018-12-10T05:51:16.519Z,12.00
2018-12-10T05:53:46.500Z,11.90
2018-12-10T05:56:16.483Z,11.90
2018-12-10T05:58:46.589Z,11.90
2018-12-10T06:01:27.104Z,11.80
2018-12-10T06:03:56.832Z,11.90
2018-12-10T06:06:27.498Z,11.80
2018-12-10T06:08:57.504Z,11.90
2018-12-10T06:11:27.371Z,11.80
2018-12-10T06:13:57.575Z,11.90
2018-12-10T06:16:27.401Z,11.80
2018-12-10T06:18:57.103Z,11.80
2018-12-10T06:21:26.693Z,11.80
2018-12-10T06:23:56.757Z,11.90
2018-12-10T06:26:26.330Z,11.90
2018-12-10T06:28:56.893Z,11.90
2018-12-10T06:31:31.360Z,11.90
2018-12-10T06:34:09.202Z,11.80
2018-12-10T06:36:40.014Z,11.90
2018-12-10T06:39:09.960Z,11.80
2018-12-10T06:41:39.893Z,11.80
2018-12-10T06:44:11.372Z,11.80
2018-12-10T06:46:47.584Z,11.70
2018-12-10T06:49:17.319Z,11.70
2018-12-10T06:51:47.093Z,11.70
2018-12-10T06:54:20.002Z,11.70
2018-12-10T06:56:49.652Z,11.70
2018-12-10T06:59:31.563Z,11.80
2018-12-10T07:02:04.081Z,11.80
2018-12-10T07:04:33.932Z,11.80
2018-12-10T07:07:03.945Z,11.90
2018-12-10T07:09:33.915Z,12.00
2018-12-10T07:12:04.185Z,12.00
2018-12-10T07:14:34.272Z,12.10
2018-12-10T07:17:05.308Z,12.20
2018-12-10T07:19:35.335Z,12.20
2018-12-10T07:22:06.732Z,12.20
2018-12-10T07:24:43.043Z,12.10
2018-12-10T07:27:12.889Z,12.00
2018-12-10T07:29:48.186Z,12.00
2018-12-10T07:32:23.260Z,11.90
2018-12-10T07:34:53.321Z,11.90
2018-12-10T07:37:23.684Z,12.00
2018-12-10T07:39:53.819Z,12.10
2018-12-10T07:42:23.721Z,12.10
2018-12-10T07:44:53.642Z,12.10
2018-12-10T07:47:23.354Z,12.30
2018-12-10T07:49:53.272Z,12.40
2018-12-10T07:52:22.947Z,12.50
2018-12-10T07:54:53.336Z,12.50
2018-12-10T07:57:23.014Z,12.40
2018-12-10T07:59:52.780Z,12.40
2018-12-10T08:02:22.283Z,12.40
2018-12-10T08:04:52.623Z,12.40
2018-12-10T08:07:22.073Z,12.50
2018-12-10T08:09:51.887Z,12.50
2018-12-10T08:12:21.803Z,12.60
2018-12-10T08:14:56.460Z,12.60
2018-12-10T08:20:06.597Z,12.70
2018-12-10T08:22:53.931Z,12.60
2018-12-10T08:25:23.846Z,12.70
2018-12-10T08:27:53.764Z,12.70
2018-12-10T08:30:23.786Z,12.70
2018-12-10T08:32:53.809Z,12.70
2018-12-10T08:35:23.353Z,12.80
2018-12-10T08:37:53.025Z,11.30
2018-12-10T08:40:22.622Z,12.90
2018-12-10T08:42:52.615Z,12.90
2018-12-10T08:45:22.210Z,13.00
2018-12-10T08:47:52.060Z,13.00
2018-12-10T08:50:22.038Z,13.00
2018-12-10T08:52:52.070Z,13.00
2018-12-10T08:55:21.613Z,13.10
2018-12-10T08:57:51.651Z,13.20
2018-12-10T09:00:21.220Z,13.30
2018-12-10T09:02:51.445Z,13.30
2018-12-10T09:05:21.045Z,13.40
2018-12-10T09:07:51.042Z,13.50
2018-12-10T09:10:21.928Z,13.50
2018-12-10T09:12:56.568Z,13.50
2018-12-10T09:15:26.532Z,13.60
2018-12-10T09:17:57.827Z,13.70
2018-12-10T09:20:28.756Z,13.70
2018-12-10T09:22:59.383Z,13.80
2018-12-10T09:25:29.759Z,13.80
2018-12-10T09:28:00.876Z,13.90
2018-12-10T09:30:30.826Z,13.90
2018-12-10T09:33:00.743Z,13.90
2018-12-10T09:35:31.644Z,13.70
2018-12-10T09:38:01.734Z,13.80
2018-12-10T09:40:31.706Z,13.80
2018-12-10T09:43:01.692Z,13.90
2018-12-10T09:45:31.898Z,14.00
2018-12-10T09:48:02.035Z,14.00
2018-12-10T09:50:32.025Z,14.10
2018-12-10T09:53:01.974Z,14.20
2018-12-10T09:55:32.191Z,14.30
2018-12-10T09:58:02.236Z,14.30
2018-12-10T10:00:32.207Z,14.20
2018-12-10T10:03:02.038Z,14.20
2018-12-10T10:05:32.032Z,14.20
2018-12-10T10:08:02.181Z,14.10
2018-12-10T10:10:32.177Z,14.10
2018-12-10T10:13:02.240Z,14.30
2018-12-10T10:15:39.834Z,14.30
2018-12-10T10:18:09.834Z,14.40
2018-12-10T10:20:40.375Z,14.30
2018-12-10T10:23:10.906Z,14.40
2018-12-10T10:25:41.013Z,14.60
2018-12-10T10:28:11.016Z,14.60
2018-12-10T10:30:44.095Z,14.50
2018-12-10T10:33:12.995Z,14.60
2018-12-10T10:35:43.052Z,14.70
2018-12-10T10:38:15.153Z,14.70
2018-12-10T10:40:45.588Z,14.70
2018-12-10T10:43:15.713Z,14.80
2018-12-10T10:45:46.898Z,14.80
2018-12-10T10:48:17.773Z,14.80
2018-12-10T10:50:47.696Z,16.00
2018-12-10T10:53:18.339Z,14.80
2018-12-10T10:55:48.603Z,14.90
2018-12-10T10:58:19.831Z,15.00
2018-12-10T11:00:54.738Z,15.20
2018-12-10T11:03:34.667Z,15.10
2018-12-10T11:06:04.679Z,15.10
2018-12-10T11:08:54.491Z,15.00
2018-12-10T11:11:24.772Z,15.10
2018-12-10T11:13:56.667Z,15.10
2018-12-10T11:16:26.560Z,15.10
2018-12-10T11:18:57.205Z,15.20
2018-12-10T11:21:27.446Z,15.30
2018-12-10T11:23:57.853Z,15.20
2018-12-10T11:26:27.970Z,15.10
2018-12-10T11:28:59.132Z,15.10
2018-12-10T11:31:29.170Z,15.20
2018-12-10T11:33:59.640Z,15.20
2018-12-10T11:36:37.711Z,15.30
2018-12-10T11:39:08.043Z,15.30
2018-12-10T11:41:39.328Z,15.40
2018-12-10T11:44:14.792Z,15.30
2018-12-10T11:46:49.420Z,15.40
2018-12-10T11:49:22.774Z,15.40
2018-12-10T11:51:56.845Z,15.10
2018-12-10T11:54:27.338Z,14.90
2018-12-10T11:56:57.635Z,14.90
2018-12-10T11:59:27.661Z,14.90
2018-12-10T12:01:57.886Z,14.90
2018-12-10T12:04:34.157Z,14.90
2018-12-10T12:07:06.332Z,14.80
2018-12-10T12:09:36.720Z,14.90
2018-12-10T12:12:07.010Z,15.00
2018-12-10T12:14:37.909Z,15.00
2018-12-10T12:17:08.288Z,15.00
2018-12-10T12:19:38.474Z,14.80
2018-12-10T12:22:08.630Z,15.00
2018-12-10T12:24:38.675Z,15.20
2018-12-10T12:27:08.944Z,15.30
2018-12-10T12:29:39.317Z,15.30
2018-12-10T12:32:09.631Z,15.10
2018-12-10T12:34:39.708Z,15.10
2018-12-10T12:37:10.266Z,14.90
2018-12-10T12:39:40.294Z,14.90
2018-12-10T12:42:10.568Z,15.00
2018-12-10T12:44:40.892Z,15.00
2018-12-10T12:47:11.174Z,15.10
2018-12-10T12:49:41.426Z,15.00
2018-12-10T12:52:11.690Z,14.90
2018-12-10T12:54:41.707Z,14.90
2018-12-10T12:57:12.736Z,14.80
2018-12-10T12:59:46.144Z,15.00
2018-12-10T13:02:16.304Z,15.20
2018-12-10T13:04:46.594Z,15.10
2018-12-10T13:07:17.789Z,15.10
2018-12-10T13:09:48.463Z,15.10
2018-12-10T13:12:18.556Z,15.10
2018-12-10T13:14:50.530Z,15.30
2018-12-10T13:17:20.384Z,15.50
2018-12-10T13:19:50.522Z,15.50
2018-12-10T13:22:20.687Z,15.50
2018-12-10T13:24:50.937Z,15.30
2018-12-10T13:27:20.527Z,15.40
2018-12-10T13:29:50.750Z,15.60
2018-12-10T13:32:20.936Z,15.70
2018-12-10T13:34:51.291Z,15.60
2018-12-10T13:37:20.931Z,15.70
2018-12-10T13:39:51.113Z,15.80
2018-12-10T13:42:21.032Z,15.80
2018-12-10T13:44:50.943Z,15.80
2018-12-10T13:47:21.025Z,16.00
2018-12-10T13:49:51.155Z,15.90
2018-12-10T13:52:20.858Z,15.90
2018-12-10T13:54:51.997Z,15.70
2018-12-10T13:57:24.256Z,15.60
2018-12-10T13:59:54.537Z,15.50
2018-12-10T14:02:24.005Z,15.50
2018-12-10T14:05:00.624Z,15.60
2018-12-10T14:07:30.591Z,15.70
2018-12-10T14:10:00.480Z,15.80
2018-12-10T14:12:48.794Z,15.80
2018-12-10T14:15:18.577Z,15.70
2018-12-10T14:17:48.533Z,15.70
2018-12-10T14:20:18.305Z,15.70
2018-12-10T14:22:48.458Z,15.60
2018-12-10T14:25:26.656Z,15.60
2018-12-10T14:27:56.829Z,15.70
2018-12-10T14:30:26.355Z,15.50
2018-12-10T14:32:56.357Z,15.50
2018-12-10T14:35:26.209Z,15.70
2018-12-10T14:37:56.052Z,15.60
2018-12-10T14:40:25.624Z,15.60
2018-12-10T14:42:59.567Z,15.60
2018-12-10T14:45:29.701Z,15.50
2018-12-10T14:47:59.658Z,15.80
2018-12-10T14:50:29.759Z,15.70
2018-12-10T14:53:00.019Z,15.60
2018-12-10T14:55:30.076Z,15.90
2018-12-10T14:58:00.155Z,16.10
2018-12-10T15:00:30.373Z,16.20
2018-12-10T15:03:00.370Z,16.20
2018-12-10T15:05:30.209Z,16.10
2018-12-10T15:08:00.265Z,15.90
2018-12-10T15:10:31.795Z,16.00
2018-12-10T15:13:01.921Z,15.90
2018-12-10T15:15:31.823Z,15.80
2018-12-10T15:18:01.800Z,15.80
2018-12-10T15:20:32.800Z,15.60
2018-12-10T15:23:02.867Z,15.60
2018-12-10T15:25:32.870Z,15.50
2018-12-10T15:28:02.925Z,15.40
2018-12-10T15:30:33.050Z,15.30
2018-12-10T15:33:03.742Z,15.30
2018-12-10T15:35:34.056Z,15.20
2018-12-10T15:38:16.026Z,15.20
2018-12-10T15:40:46.060Z,15.20
2018-12-10T15:43:22.441Z,15.10
2018-12-10T15:45:52.493Z,15.10
2018-12-10T15:48:22.141Z,15.10
2018-12-10T15:50:52.092Z,15.10
2018-12-10T15:53:28.824Z,15.00
2018-12-10T15:55:58.879Z,14.90
2018-12-10T15:58:38.379Z,15.00
2018-12-10T16:01:08.572Z,15.00
2018-12-10T16:03:38.699Z,14.80
2018-12-10T16:06:08.696Z,14.70
2018-12-10T16:08:38.557Z,14.70
2018-12-10T16:11:08.786Z,14.80
2018-12-10T16:13:38.815Z,14.80
2018-12-10T16:16:09.381Z,14.70
2018-12-10T16:18:48.326Z,14.60
2018-12-10T16:21:18.700Z,14.50
2018-12-10T16:23:48.685Z,14.50
2018-12-10T16:26:18.427Z,14.50
2018-12-10T16:28:48.289Z,14.50
2018-12-10T16:31:18.000Z,14.50
2018-12-10T16:33:48.234Z,14.40
2018-12-10T16:36:19.190Z,14.40
2018-12-10T16:38:49.538Z,14.40
2018-12-10T16:41:25.092Z,14.40
2018-12-10T16:43:55.467Z,14.40
2018-12-10T16:46:25.220Z,14.30
2018-12-10T16:49:04.868Z,14.40
2018-12-10T16:51:35.078Z,14.50
2018-12-10T16:54:05.442Z,14.50
2018-12-10T16:56:35.733Z,14.50
2018-12-10T16:59:06.250Z,14.40
2018-12-10T17:01:36.292Z,14.40
2018-12-10T17:04:06.600Z,14.30
2018-12-10T17:06:36.709Z,14.20
2018-12-10T17:09:10.484Z,14.10
2018-12-10T17:11:41.204Z,14.10
2018-12-10T17:14:11.818Z,14.10
2018-12-10T17:16:45.172Z,14.10
2018-12-10T17:19:15.825Z,14.00
2018-12-10T17:21:47.602Z,14.00
2018-12-10T17:24:18.034Z,14.00
2018-12-10T17:26:48.703Z,14.00
2018-12-10T17:29:27.595Z,13.90
2018-12-10T17:31:57.955Z,13.80
2018-12-10T17:34:27.928Z,13.80
2018-12-10T17:36:58.310Z,13.80
2018-12-10T17:39:28.511Z,13.80
2018-12-10T17:42:07.884Z,13.80
2018-12-10T17:44:38.489Z,13.80
2018-12-10T17:47:18.109Z,13.80
2018-12-10T17:49:48.563Z,13.80
2018-12-10T17:52:18.609Z,13.80
2018-12-10T17:54:49.295Z,13.80
2018-12-10T17:57:25.991Z,13.80
2018-12-10T17:59:57.243Z,13.80
2018-12-10T18:02:27.518Z,13.80
2018-12-10T18:04:58.396Z,13.80
2018-12-10T18:07:28.376Z,13.90
2018-12-10T18:10:06.032Z,13.90
2018-12-10T18:12:36.314Z,13.90
2018-12-10T18:15:22.597Z,13.90
2018-12-10T18:17:53.115Z,14.00
2018-12-10T18:20:40.464Z,14.00
2018-12-10T18:23:10.826Z,15.20
2018-12-10T18:25:41.253Z,14.10
2018-12-10T18:28:11.459Z,14.00
2018-12-10T18:30:46.291Z,14.00
2018-12-10T18:33:16.877Z,13.80
2018-12-10T18:39:08.055Z,13.70
2018-12-10T18:41:39.179Z,13.80
2018-12-10T18:44:09.456Z,13.70
2018-12-10T18:46:39.683Z,13.70
2018-12-10T18:49:09.911Z,13.70
2018-12-10T18:51:48.008Z,13.70
2018-12-10T18:54:18.363Z,13.70
2018-12-10T18:56:48.706Z,13.60
2018-12-10T18:59:25.253Z,13.60
2018-12-10T19:01:55.390Z,13.60
2018-12-10T19:04:25.172Z,13.60
2018-12-10T19:06:55.375Z,13.60
2018-12-10T19:09:25.348Z,13.50
2018-12-10T19:11:55.679Z,13.50
2018-12-10T19:14:25.494Z,13.60
2018-12-10T19:16:56.016Z,13.70
2018-12-10T19:19:25.985Z,13.70
2018-12-10T19:21:56.564Z,13.80
2018-12-10T19:24:26.519Z,13.60
2018-12-10T19:26:56.753Z,13.50
2018-12-10T19:29:26.655Z,13.50
2018-12-10T19:31:56.707Z,13.40
2018-12-10T19:34:27.421Z,13.30
2018-12-10T19:36:57.139Z,13.30
2018-12-10T19:39:27.070Z,13.30
2018-12-10T19:41:57.356Z,13.20
2018-12-10T19:44:27.810Z,13.20
2018-12-10T19:47:00.593Z,13.20
2018-12-10T19:49:31.850Z,13.30
2018-12-10T19:52:02.168Z,13.30
2018-12-10T19:54:45.545Z,13.20
2018-12-10T19:57:15.973Z,13.40
2018-12-10T19:59:46.435Z,13.40
2018-12-10T20:02:17.068Z,13.50
2018-12-10T20:04:47.259Z,13.40
2018-12-10T20:07:21.333Z,13.30
2018-12-10T20:09:56.592Z,13.30
2018-12-10T20:12:26.475Z,13.30
2018-12-10T20:14:56.752Z,13.30
2018-12-10T20:17:26.408Z,13.20
2018-12-10T20:19:56.905Z,13.20
2018-12-10T20:22:26.713Z,13.20
2018-12-10T20:24:56.908Z,13.20
2018-12-10T20:27:26.768Z,13.20
2018-12-10T20:29:57.011Z,13.20
2018-12-10T20:32:29.262Z,13.30
2018-12-10T20:34:59.320Z,13.30
2018-12-10T20:37:29.435Z,13.40
2018-12-10T20:39:59.967Z,13.30
2018-12-10T20:42:30.236Z,13.20
2018-12-10T20:45:12.463Z,13.20
2018-12-10T20:47:42.159Z,13.30
2018-12-10T20:50:12.332Z,13.40
2018-12-10T20:52:42.765Z,13.30
2018-12-10T20:55:12.559Z,13.30
2018-12-10T20:57:45.609Z,13.10
2018-12-10T21:00:15.904Z,13.10
2018-12-10T21:02:46.057Z,13.10
2018-12-10T21:05:16.191Z,13.00
2018-12-10T21:07:46.596Z,12.90
2018-12-10T21:10:16.609Z,12.90
2018-12-10T21:12:48.570Z,12.80
2018-12-10T21:15:18.793Z,12.80
2018-12-10T21:20:35.015Z,12.70
2018-12-10T21:23:04.958Z,12.80
2018-12-10T21:25:35.235Z,12.80
2018-12-10T21:28:05.220Z,12.80
2018-12-10T21:30:35.348Z,12.80
2018-12-10T21:33:05.481Z,12.70
2018-12-10T21:35:35.437Z,12.70
2018-12-10T21:38:05.389Z,12.70
2018-12-10T21:40:35.787Z,12.60
2018-12-10T21:43:05.850Z,12.60
2018-12-10T21:45:35.745Z,12.60
2018-12-10T21:48:05.828Z,12.60
2018-12-10T21:50:35.961Z,12.60
2018-12-10T21:53:07.178Z,12.60
2018-12-10T21:55:37.108Z,12.70
2018-12-10T21:58:07.217Z,12.70
2018-12-10T22:00:37.395Z,12.60
2018-12-10T22:03:07.642Z,12.70
2018-12-10T22:05:37.830Z,12.70
2018-12-10T22:08:24.765Z,12.70
2018-12-10T22:10:54.737Z,12.60
2018-12-10T22:13:24.375Z,12.60
2018-12-10T22:16:10.864Z,12.70
2018-12-10T22:18:40.795Z,12.60
2018-12-10T22:21:11.653Z,12.60
2018-12-10T22:23:41.584Z,12.70
2018-12-10T22:26:11.711Z,12.70
2018-12-10T22:28:41.922Z,12.70
2018-12-10T22:31:11.932Z,12.70
2018-12-10T22:33:42.536Z,12.80
2018-12-10T22:36:12.411Z,12.70
2018-12-10T22:38:42.498Z,12.70
2018-12-10T22:41:12.759Z,12.70
2018-12-10T22:43:49.749Z,12.70
2018-12-10T22:46:19.572Z,12.60
2018-12-10T22:48:49.999Z,12.60
2018-12-10T22:51:19.584Z,12.60
2018-12-10T22:53:49.660Z,12.60
2018-12-10T22:56:19.254Z,12.70
2018-12-10T22:58:49.258Z,12.80
2018-12-10T23:01:19.692Z,12.80
2018-12-10T23:03:49.751Z,12.80
2018-12-10T23:06:19.646Z,12.80
2018-12-10T23:08:49.974Z,12.80
2018-12-10T23:11:21.585Z,12.70
2018-12-10T23:13:51.450Z,12.70
2018-12-10T23:16:21.048Z,12.70
2018-12-10T23:18:50.780Z,12.60
2018-12-10T23:21:20.535Z,12.60
2018-12-10T23:23:50.400Z,12.70
2018-12-10T23:26:21.115Z,12.70
2018-12-10T23:28:57.144Z,12.70
2018-12-10T23:31:26.968Z,12.70
2018-12-10T23:33:57.887Z,12.70
2018-12-10T23:36:27.645Z,12.60
2018-12-10T23:38:57.844Z,12.50
2018-12-10T23:41:28.022Z,12.50
2018-12-10T23:43:57.977Z,12.50
2018-12-10T23:46:31.163Z,12.60
2018-12-10T23:49:01.100Z,12.60
2018-12-10T23:51:30.938Z,12.60
2018-12-10T23:54:00.995Z,12.50
2018-12-10T23:56:30.856Z,12.50
2018-12-10T23:59:00.928Z,12.50
